Time;durP1;ratioP1;P1;durP2;ratioP2;P2;SDS_P1;SDS_P2;PMS_P1;PMS_P2;Temp;Humidity;BMP_temperature;BMP_pressure;BME280_temperature;BME280_humidity;BME280_pressure;Samples;Min_cycle;Max_cycle;Signal;HPM_P1;HPM_P2
2022/11/04 00:01:54;;;;;;;6.68;3.53;;;;;;;18.95;58.01;99790.09;5050496;28;20044;-47
2022/11/04 00:04:21;;;;;;;7.68;3.72;;;;;;;18.94;58.01;99794.50;5047480;28;20033;-47
2022/11/04 00:06:47;;;;;;;6.97;3.78;;;;;;;18.94;58.02;99805.03;5046118;28;20028;-48
2022/11/04 00:09:17;;;;;;;6.38;3.72;;;;;;;18.95;58.01;99805.88;5046525;28;20771;-47
2022/11/04 00:14:29;;;;;;;4.90;3.15;;;;;;;18.94;57.94;99819.97;5051406;28;20097;-46
2022/11/04 00:30:35;;;;;;;5.57;3.10;;;;;;;18.92;57.87;99833.25;5048195;28;20071;-46
2022/11/04 00:35:49;;;;;;;6.35;2.95;;;;;;;18.92;57.98;99849.06;5048650;28;20052;-46
2022/11/04 00:38:14;;;;;;;7.00;3.40;;;;;;;18.91;57.87;99847.34;5045244;28;20037;-47
2022/11/04 00:40:40;;;;;;;7.45;3.42;;;;;;;18.92;57.90;99843.78;5047149;28;20704;-48
2022/11/04 00:43:06;;;;;;;7.07;3.22;;;;;;;18.91;57.87;99850.00;5052630;28;20489;-47
2022/11/04 00:45:31;;;;;;;5.35;3.38;;;;;;;18.91;57.83;99850.00;5058235;28;20051;-46
2022/11/04 00:47:56;;;;;;;9.32;3.78;;;;;;;18.91;57.90;99860.53;5042419;28;20064;-47
2022/11/04 00:50:22;;;;;;;7.30;3.17;;;;;;;18.90;58.01;99861.47;5049817;28;20136;-46
2022/11/04 00:52:47;;;;;;;6.88;3.10;;;;;;;18.91;57.84;99872.84;5042241;28;20052;-46
2022/11/04 00:55:12;;;;;;;7.75;2.85;;;;;;;18.91;57.90;99875.47;5046391;28;20115;-49
2022/11/04 00:57:38;;;;;;;5.82;3.53;;;;;;;18.90;57.76;99879.03;5054226;28;20175;-45
2022/11/04 01:00:04;;;;;;;5.40;3.15;;;;;;;18.92;57.76;99882.41;5039275;28;20036;-47
2022/11/04 01:02:29;;;;;;;5.35;2.95;;;;;;;18.90;57.77;99876.41;5049545;28;20090;-46
2022/11/04 01:04:55;;;;;;;7.10;3.70;;;;;;;18.90;57.90;99879.88;5051393;28;20036;-48
2022/11/04 01:07:20;;;;;;;6.47;3.00;;;;;;;18.90;57.76;99885.13;5049125;28;20434;-46
2022/11/04 01:09:47;;;;;;;6.15;3.42;;;;;;;18.90;57.92;99882.50;5054946;28;20037;-46
2022/11/04 01:12:13;;;;;;;4.72;3.00;;;;;;;18.89;57.77;99894.00;5047508;28;20057;-46
2022/11/04 01:14:38;;;;;;;4.93;3.05;;;;;;;18.90;57.84;99886.94;5047314;28;20075;-46
2022/11/04 01:17:03;;;;;;;5.15;3.15;;;;;;;18.89;57.94;99887.91;5048657;28;20143;-46
2022/11/04 01:19:29;;;;;;;5.78;2.97;;;;;;;18.88;57.89;99894.09;5048504;28;20094;-46
2022/11/04 01:21:54;;;;;;;6.10;3.00;;;;;;;18.88;57.88;99900.22;5045079;28;20654;-45
2022/11/04 01:24:19;;;;;;;4.90;2.40;;;;;;;18.88;57.87;99899.34;5047663;28;20564;-48
2022/11/04 01:26:45;;;;;;;4.50;2.80;;;;;;;18.87;58.04;99906.41;5047482;28;21235;-47
2022/11/04 01:29:10;;;;;;;5.90;3.55;;;;;;;18.89;57.43;99908.94;5051203;28;20408;-46
2022/11/04 01:31:36;;;;;;;4.95;2.70;;;;;;;18.88;57.85;99916.00;5044756;28;20128;-45
2022/11/04 01:34:01;;;;;;;4.47;2.83;;;;;;;18.87;57.74;99924.81;5053207;28;20041;-46
2022/11/04 01:36:27;;;;;;;3.65;2.50;;;;;;;18.87;57.80;99929.28;5053144;28;20488;-46
2022/11/04 01:38:54;;;;;;;3.88;2.53;;;;;;;18.88;57.67;99929.16;5042015;28;20198;-47
2022/11/04 01:41:25;;;;;;;4.93;2.60;;;;;;;18.88;57.71;99930.94;5053393;28;20088;-48
2022/11/04 01:43:58;;;;;;;6.22;3.28;;;;;;;18.87;57.75;99930.09;5044256;28;20043;-47
2022/11/04 01:46:41;;;;;;;5.47;2.72;;;;;;;18.88;57.68;99928.31;5039750;28;20040;-46
2022/11/04 01:49:30;;;;;;;5.30;2.72;;;;;;;18.86;57.63;99931.06;5050209;28;20036;-47
2022/11/04 01:52:10;;;;;;;5.63;2.53;;;;;;;18.87;57.63;99929.28;5046874;28;20037;-49
2022/11/04 01:54:38;;;;;;;5.75;2.45;;;;;;;18.86;57.55;99932.84;5047642;28;20033;-46
2022/11/04 01:57:12;;;;;;;4.20;2.60;;;;;;;18.86;57.60;99938.94;5048633;28;20560;-48
2022/11/04 01:59:39;;;;;;;4.73;2.47;;;;;;;18.85;57.76;99937.25;5045898;28;20039;-46
2022/11/04 02:02:06;;;;;;;4.15;2.58;;;;;;;18.85;57.83;99928.50;5049446;28;20045;-47
2022/11/04 02:04:32;;;;;;;4.32;2.33;;;;;;;18.85;57.69;99932.00;5049082;28;20565;-48
2022/11/04 02:07:01;;;;;;;5.20;2.63;;;;;;;18.86;57.83;99938.09;5048538;28;20032;-45
2022/11/04 02:09:29;;;;;;;4.60;2.58;;;;;;;18.84;57.52;99930.28;5042863;28;20029;-46
2022/11/04 02:14:39;;;;;;;4.77;2.80;;;;;;;18.83;57.77;99926.00;5044219;28;20630;-46
2022/11/04 02:17:36;;;;;;;4.70;2.40;;;;;;;18.83;57.55;99923.38;5047979;28;20817;-48
2022/11/04 02:20:30;;;;;;;3.88;2.40;;;;;;;18.83;57.56;99915.47;5042441;28;20552;-45
2022/11/04 02:23:33;;;;;;;4.72;2.22;;;;;;;18.83;57.53;99918.09;5047307;28;20856;-46
2022/11/04 02:26:38;;;;;;;3.25;2.10;;;;;;;18.82;57.37;99924.31;5047461;28;20501;-46
2022/11/04 02:29:18;;;;;;;4.88;2.60;;;;;;;18.82;57.63;99916.41;5047365;28;20052;-47
2022/11/04 02:32:02;;;;;;;4.07;2.30;;;;;;;18.83;57.61;99925.16;5043763;28;20028;-47
2022/11/04 02:34:31;;;;;;;4.32;1.92;;;;;;;18.83;57.94;99922.53;5051257;28;20064;-46
2022/11/04 02:37:07;;;;;;;4.80;2.50;;;;;;;18.84;57.46;99918.97;5053233;28;20040;-46
2022/11/04 02:39:56;;;;;;;4.20;2.35;;;;;;;18.81;57.42;99914.72;5043584;28;20059;-50
2022/11/04 02:42:36;;;;;;;3.00;1.85;;;;;;;18.81;57.53;99921.78;5052767;28;20094;-46
2022/11/04 02:45:20;;;;;;;3.53;1.98;;;;;;;18.82;57.72;99913.78;5044918;28;20040;-46
2022/11/04 02:47:53;;;;;;;3.00;2.00;;;;;;;18.80;57.58;99914.84;5042770;28;20469;-46
2022/11/04 02:50:25;;;;;;;4.45;2.72;;;;;;;18.81;57.65;99917.34;5049576;28;20037;-46
2022/11/04 02:52:59;;;;;;;4.50;2.10;;;;;;;18.81;57.60;99911.28;5049571;28;20079;-47
2022/11/04 02:55:34;;;;;;;4.25;2.28;;;;;;;18.80;57.52;99907.78;5058227;28;20045;-47
2022/11/04 02:58:04;;;;;;;3.35;2.15;;;;;;;18.80;57.79;99909.56;5052463;28;20036;-46
2022/11/04 03:00:30;;;;;;;3.58;2.35;;;;;;;18.80;57.78;99905.16;5048534;28;20529;-47
2022/11/04 03:03:13;;;;;;;3.55;1.98;;;;;;;18.81;57.66;99906.00;5049990;28;20497;-47
2022/11/04 03:05:43;;;;;;;3.83;2.15;;;;;;;18.80;57.57;99910.44;5048711;28;20028;-46
2022/11/04 03:08:15;;;;;;;3.03;1.90;;;;;;;18.79;57.58;99916.63;5056858;28;20079;-48
2022/11/04 03:10:45;;;;;;;3.90;2.20;;;;;;;18.78;57.75;99911.47;5058002;28;20032;-46
2022/11/04 03:13:15;;;;;;;3.65;2.20;;;;;;;18.78;57.73;99904.41;5058069;28;20035;-47
2022/11/04 03:15:48;;;;;;;3.05;1.85;;;;;;;18.79;57.59;99897.34;5052952;28;20033;-46
2022/11/04 03:18:21;;;;;;;3.35;2.10;;;;;;;18.78;57.46;99896.50;5049712;28;20071;-47
2022/11/04 03:20:48;;;;;;;3.25;1.70;;;;;;;18.79;57.47;99894.72;5055393;28;20684;-47
2022/11/04 03:23:14;;;;;;;4.70;2.10;;;;;;;18.78;57.47;99893.88;5052537;28;20362;-46
2022/11/04 03:25:44;;;;;;;3.53;1.90;;;;;;;18.78;57.58;99895.69;5051064;28;20567;-45
2022/11/04 03:28:28;;;;;;;3.13;2.10;;;;;;;18.78;57.61;99896.50;5059554;28;20032;-46
2022/11/04 03:30:58;;;;;;;2.75;2.00;;;;;;;18.78;57.59;99879.91;5051324;28;20078;-46
2022/11/04 03:33:38;;;;;;;4.15;2.13;;;;;;;18.77;57.60;99884.31;5053767;28;20132;-46
2022/11/04 03:36:05;;;;;;;3.40;1.80;;;;;;;18.76;57.49;99882.63;5056745;28;20082;-46
2022/11/04 03:38:30;;;;;;;4.55;1.92;;;;;;;18.77;57.59;99900.09;5054211;28;20036;-47
2022/11/04 03:40:59;;;;;;;2.63;1.80;;;;;;;18.78;57.55;99903.59;5053619;28;20082;-47
2022/11/04 03:43:27;;;;;;;3.83;1.58;;;;;;;18.77;57.59;99912.41;5054970;28;20040;-47
2022/11/04 03:45:54;;;;;;;2.70;1.58;;;;;;;18.76;57.43;99915.97;5051960;28;20102;-44
2022/11/04 03:48:19;;;;;;;4.05;2.00;;;;;;;18.77;57.49;99923.78;5059564;28;20072;-46
2022/11/04 03:50:47;;;;;;;3.95;1.92;;;;;;;18.77;57.74;99917.69;5055623;28;20060;-51
2022/11/04 03:53:14;;;;;;;3.75;1.70;;;;;;;18.75;57.45;99915.13;5049317;28;20043;-46
2022/11/04 03:55:47;;;;;;;4.57;1.70;;;;;;;18.76;57.40;99910.72;5052370;28;20029;-49
2022/11/04 03:58:30;;;;;;;3.78;2.10;;;;;;;18.74;57.50;99895.06;5055782;28;20490;-47
2022/11/04 04:01:06;;;;;;;3.88;1.80;;;;;;;18.74;57.51;99884.53;5054865;28;20040;-46
2022/11/04 04:03:45;;;;;;;3.40;1.67;;;;;;;18.74;57.57;99874.00;5053230;28;20024;-45
2022/11/04 04:06:27;;;;;;;3.97;1.40;;;;;;;18.73;57.52;99868.84;5047424;28;20094;-46
2022/11/04 04:08:56;;;;;;;2.42;1.65;;;;;;;18.74;57.55;99867.91;5050311;28;20133;-47
2022/11/04 04:11:49;;;;;;;3.38;2.05;;;;;;;18.73;57.44;99869.69;5043535;28;20056;-47
2022/11/04 04:14:39;;;;;;;2.45;1.42;;;;;;;18.74;57.42;99875.78;5046116;28;20041;-46
2022/11/04 04:17:16;;;;;;;3.03;1.88;;;;;;;18.74;57.37;99891.56;5052835;28;20039;-48
2022/11/04 04:19:47;;;;;;;3.10;1.88;;;;;;;18.73;57.57;99900.41;5049236;28;20048;-47
2022/11/04 04:22:21;;;;;;;3.15;1.60;;;;;;;18.74;57.54;99900.31;5050626;28;20044;-47
2022/11/04 04:27:34;;;;;;;2.40;1.70;;;;;;;18.74;57.35;99902.09;5048496;28;20518;-48
2022/11/04 04:30:03;;;;;;;3.25;1.67;;;;;;;18.73;57.45;99903.03;5051555;28;20474;-46
2022/11/04 04:32:34;;;;;;;2.55;1.42;;;;;;;18.71;57.30;99903.16;5048414;28;20469;-42
2022/11/04 04:35:44;;;;;;;2.40;1.50;;;;;;;18.72;57.53;99904.00;5046764;28;20086;-40
2022/11/04 04:37:46;;;;;;;2.85;1.60;;;;;;;18.73;57.28;99909.16;5047827;28;20379;-41
2022/11/04 04:45:55;;;;;;;5.03;1.70;;;;;;;18.70;57.45;99918.09;5055623;28;20039;-41
2022/11/04 04:48:20;;;;;;;2.42;1.30;;;;;;;18.69;57.52;99900.63;5048490;28;20076;-41
2022/11/04 04:50:49;;;;;;;2.45;1.45;;;;;;;18.68;57.48;99901.59;5050223;28;20131;-42
2022/11/04 04:53:15;;;;;;;2.28;1.40;;;;;;;18.69;57.65;99905.88;5052496;28;20036;-41
2022/11/04 04:55:40;;;;;;;3.20;1.67;;;;;;;18.70;57.33;99911.97;5044075;28;20493;-41
2022/11/04 04:58:06;;;;;;;3.08;1.52;;;;;;;18.70;57.61;99911.97;5052599;28;20587;-41
2022/11/04 05:00:32;;;;;;;3.58;1.60;;;;;;;18.69;57.36;99915.56;5046598;28;20744;-41
2022/11/04 05:02:58;;;;;;;2.90;1.50;;;;;;;18.69;57.44;99918.19;5054048;28;20118;-41
2022/11/04 05:05:23;;;;;;;2.33;1.50;;;;;;;18.68;57.56;99913.88;5048231;28;20087;-42
2022/11/04 05:07:48;;;;;;;3.53;1.48;;;;;;;18.68;57.25;99916.53;5050818;28;20032;-40
2022/11/04 05:10:15;;;;;;;3.13;1.60;;;;;;;18.69;57.65;99918.19;5046491;28;20126;-41
2022/11/04 05:15:26;;;;;;;2.42;1.50;;;;;;;18.67;57.70;99915.66;5047437;28;20091;-42
2022/11/04 05:17:57;;;;;;;5.50;1.50;;;;;;;18.66;57.33;99908.72;5044333;28;20085;-41
2022/11/04 05:20:23;;;;;;;2.25;1.40;;;;;;;18.67;57.38;99901.66;5051203;28;20499;-42
2022/11/04 05:22:49;;;;;;;2.70;1.55;;;;;;;18.68;57.25;99903.38;5043886;28;20045;-42
2022/11/04 05:25:15;;;;;;;2.83;1.55;;;;;;;18.67;57.10;99901.66;5047612;28;20094;-41
2022/11/04 05:27:40;;;;;;;2.55;1.50;;;;;;;18.65;57.46;99895.69;5044583;28;20884;-41
2022/11/04 05:30:06;;;;;;;2.35;1.45;;;;;;;18.66;57.38;99897.34;5047623;28;20052;-41
2022/11/04 05:32:31;;;;;;;2.95;1.33;;;;;;;18.66;57.46;99892.09;5046257;28;20068;-41
2022/11/04 05:34:57;;;;;;;2.05;1.30;;;;;;;18.66;57.41;99897.34;5045739;28;20464;-41
2022/11/04 05:37:25;;;;;;;2.20;1.15;;;;;;;18.66;57.40;99894.72;5050737;28;20040;-41
2022/11/04 05:39:52;;;;;;;3.55;1.85;;;;;;;18.66;57.55;99905.22;5045811;28;20646;-41
2022/11/04 05:42:17;;;;;;;3.47;1.45;;;;;;;18.63;57.46;99893.13;5047285;28;20035;-41
2022/11/04 05:44:42;;;;;;;2.33;1.17;;;;;;;18.64;57.42;99899.25;5050979;28;20058;-41
2022/11/04 05:47:08;;;;;;;2.88;1.23;;;;;;;18.66;57.46;99894.72;5048623;28;20033;-41
2022/11/04 05:49:34;;;;;;;1.73;1.02;;;;;;;18.67;56.96;99899.88;5045706;28;20041;-41
2022/11/04 05:51:59;;;;;;;2.40;1.25;;;;;;;18.71;57.17;99908.41;5051613;28;20027;-41
2022/11/04 05:54:25;;;;;;;3.05;1.70;;;;;;;18.72;56.76;99907.44;5046610;28;20124;-41
2022/11/04 05:56:51;;;;;;;2.00;1.20;;;;;;;18.71;56.81;99895.25;5048898;28;20690;-42
2022/11/04 05:59:16;;;;;;;3.35;1.45;;;;;;;18.75;56.91;99911.69;5051422;28;20043;-41
2022/11/04 06:01:45;;;;;;;3.03;1.45;;;;;;;18.80;56.86;99918.31;5045680;28;20043;-41
2022/11/04 06:04:16;;;;;;;2.25;1.30;;;;;;;18.81;56.81;99922.63;5046230;28;20033;-41
2022/11/04 06:06:42;;;;;;;2.50;1.48;;;;;;;18.85;56.94;99923.25;5049042;28;20013;-41
2022/11/04 06:09:08;;;;;;;2.40;1.10;;;;;;;18.86;56.83;99933.69;5047900;28;20047;-41
2022/11/04 06:11:34;;;;;;;2.40;1.20;;;;;;;18.94;57.07;99931.38;5049792;28;20044;-42
2022/11/04 06:14:00;;;;;;;1.77;1.08;;;;;;;19.02;56.69;99942.19;5051076;28;20179;-41
2022/11/04 06:16:28;;;;;;;2.17;1.33;;;;;;;19.00;56.86;99943.25;5048937;28;20456;-41
2022/11/04 06:18:54;;;;;;;1.65;1.00;;;;;;;18.99;56.42;99946.81;5054543;28;20063;-45
2022/11/04 06:21:25;;;;;;;2.10;1.10;;;;;;;19.02;56.53;99946.63;5052790;28;20560;-45
2022/11/04 06:23:52;;;;;;;3.15;1.23;;;;;;;19.00;56.46;99943.25;5047535;28;20191;-46
2022/11/04 06:26:18;;;;;;;4.10;1.65;;;;;;;18.99;56.00;99945.03;5051045;28;20048;-46
2022/11/04 06:28:44;;;;;;;1.67;1.00;;;;;;;19.00;56.38;99946.75;5049479;28;20750;-46
2022/11/04 06:31:11;;;;;;;2.35;1.05;;;;;;;19.05;55.98;99949.88;5053010;28;21036;-44
2022/11/04 06:33:37;;;;;;;3.00;1.15;;;;;;;19.13;55.96;99949.38;5067942;28;20371;-47
2022/11/04 06:36:05;;;;;;;2.17;1.08;;;;;;;19.20;56.00;99951.47;5047057;28;20095;-46
2022/11/04 06:38:31;;;;;;;1.63;1.08;;;;;;;19.21;56.00;99958.44;5051187;28;20037;-45
2022/11/04 06:40:57;;;;;;;2.58;1.15;;;;;;;19.20;55.69;99967.25;5049988;28;20051;-47
2022/11/04 06:43:23;;;;;;;1.65;0.95;;;;;;;19.18;56.10;99968.31;5050718;28;20060;-48
2022/11/04 06:45:57;;;;;;;2.40;0.90;;;;;;;19.24;55.55;99966.13;5048126;28;20033;-45
2022/11/04 06:48:26;;;;;;;1.77;0.98;;;;;;;19.20;55.95;99972.53;5048035;28;20045;-46
2022/11/04 06:50:52;;;;;;;2.45;1.42;;;;;;;19.18;56.04;99978.84;5047566;28;20055;-45
2022/11/04 06:53:17;;;;;;;2.40;1.40;;;;;;;19.21;56.34;99987.38;5052050;28;20044;-46
2022/11/04 06:55:44;;;;;;;3.22;1.08;;;;;;;19.38;56.64;99994.16;5047973;28;20036;-47
2022/11/04 06:58:10;;;;;;;2.33;0.82;;;;;;;19.44;56.47;99983.19;5048869;28;20382;-46
2022/11/04 07:00:36;;;;;;;3.72;1.08;;;;;;;19.38;55.82;99978.34;5052816;28;20031;-47
2022/11/04 07:03:01;;;;;;;3.50;1.10;;;;;;;19.41;56.42;99988.66;5046870;28;20082;-46
2022/11/04 07:05:26;;;;;;;5.18;1.58;;;;;;;19.43;56.36;100001.75;5055824;28;20102;-47
2022/11/04 07:07:52;;;;;;;8.63;2.83;;;;;;;19.45;55.92;100007.72;5050587;28;20118;-47
2022/11/04 07:10:17;;;;;;;14.10;3.33;;;;;;;19.54;56.11;100004.47;5048968;28;20041;-48
2022/11/04 07:12:43;;;;;;;12.07;3.53;;;;;;;19.60;55.87;100004.88;5048961;28;20040;-47
2022/11/04 07:15:09;;;;;;;11.00;2.90;;;;;;;19.66;55.98;100014.16;5049565;28;20090;-46
2022/11/04 07:17:35;;;;;;;13.82;3.22;;;;;;;19.67;55.60;100011.38;5057836;28;20041;-47
2022/11/04 07:20:00;;;;;;;9.05;2.80;;;;;;;19.58;56.15;100013.84;5054800;28;20086;-46
2022/11/04 07:22:25;;;;;;;9.40;2.63;;;;;;;19.58;56.08;100027.03;5051313;28;20328;-44
2022/11/04 07:24:51;;;;;;;14.00;3.08;;;;;;;19.66;55.81;100037.84;5047170;28;20127;-46
2022/11/04 07:27:16;;;;;;;14.48;2.80;;;;;;;19.65;55.90;100049.34;5049197;28;20067;-46
2022/11/04 07:29:46;;;;;;;17.75;3.97;;;;;;;19.72;55.62;100053.25;5047388;28;20587;-47
2022/11/04 07:32:11;;;;;;;8.57;3.50;;;;;;;19.72;55.63;100061.16;5049899;28;20163;-46
2022/11/04 07:34:37;;;;;;;8.55;2.58;;;;;;;19.75;55.78;100060.94;5051349;28;20037;-46
2022/11/04 07:37:02;;;;;;;13.07;2.50;;;;;;;19.65;55.85;100059.88;5055349;28;20798;-47
2022/11/04 07:39:27;;;;;;;10.43;2.63;;;;;;;19.63;55.84;100052.09;5060633;28;20034;-44
2022/11/04 07:41:53;;;;;;;8.98;2.50;;;;;;;19.65;56.09;100052.81;5056838;28;20036;-48
2022/11/04 07:44:18;;;;;;;6.95;2.25;;;;;;;19.77;55.58;100041.41;5048166;28;20033;-47
2022/11/04 07:46:43;;;;;;;11.13;2.95;;;;;;;19.75;55.41;100045.97;5051536;28;20052;-47
2022/11/04 07:49:10;;;;;;;7.28;2.90;;;;;;;19.78;55.42;100044.91;5045745;28;20021;-46
2022/11/04 07:51:35;;;;;;;9.60;2.67;;;;;;;19.81;55.53;100052.59;5053532;28;20032;-46
2022/11/04 07:54:00;;;;;;;7.28;2.30;;;;;;;19.78;55.52;100048.38;5051855;28;20051;-45
2022/11/04 07:56:26;;;;;;;8.57;2.72;;;;;;;19.78;55.53;100050.19;5053511;28;20048;-46
2022/11/04 07:58:52;;;;;;;6.43;2.35;;;;;;;19.84;55.48;100047.13;5050187;28;20763;-45
2022/11/04 08:01:22;;;;;;;6.13;2.42;;;;;;;19.86;55.46;100039.94;5051785;28;20064;-46
2022/11/04 08:03:49;;;;;;;5.35;1.88;;;;;;;19.86;55.42;100033.81;5052051;28;20038;-45
2022/11/04 08:06:16;;;;;;;6.40;1.95;;;;;;;19.85;55.42;100042.69;5052554;28;20036;-45
2022/11/04 08:08:44;;;;;;;8.68;2.95;;;;;;;19.86;55.32;100047.00;5045992;28;20037;-44
2022/11/04 08:11:13;;;;;;;6.65;2.10;;;;;;;19.86;55.42;100047.84;5043514;28;20540;-44
2022/11/04 08:13:38;;;;;;;5.45;2.17;;;;;;;19.79;55.84;100052.69;5044924;28;20044;-44
2022/11/04 08:16:15;;;;;;;9.50;2.53;;;;;;;19.76;55.42;100046.78;5051178;28;20044;-45
2022/11/04 08:18:41;;;;;;;6.45;2.10;;;;;;;19.71;55.13;100059.44;5049032;28;20064;-44
2022/11/04 08:21:08;;;;;;;8.30;2.40;;;;;;;19.80;55.42;100054.38;5045988;28;20034;-46
2022/11/04 08:23:33;;;;;;;6.38;2.10;;;;;;;19.76;55.64;100059.97;5051725;28;20036;-45
2022/11/04 08:25:59;;;;;;;8.85;2.42;;;;;;;19.79;55.48;100062.38;5041498;28;20028;-46
2022/11/04 08:28:26;;;;;;;5.63;2.33;;;;;;;19.82;55.56;100066.63;5046914;28;20041;-46
2022/11/04 08:30:53;;;;;;;5.97;1.75;;;;;;;19.84;55.46;100059.44;5050900;28;20523;-47
2022/11/04 08:33:18;;;;;;;8.73;2.33;;;;;;;19.56;55.41;100064.00;5050799;28;20071;-46
2022/11/04 08:35:43;;;;;;;6.70;2.35;;;;;;;19.33;55.85;100071.78;5044716;28;20021;-45
2022/11/04 08:38:09;;;;;;;9.30;2.47;;;;;;;19.31;55.89;100071.06;5034584;28;20496;-46
2022/11/04 08:40:35;;;;;;;6.72;2.35;;;;;;;19.35;55.64;100077.78;5048336;28;20457;-46
2022/11/04 08:43:01;;;;;;;8.95;2.28;;;;;;;19.34;56.47;100082.22;5051737;28;20040;-49
2022/11/04 08:45:27;;;;;;;6.60;2.20;;;;;;;19.66;56.15;100080.88;5051713;28;20051;-46
2022/11/04 08:47:52;;;;;;;11.57;2.55;;;;;;;19.91;55.55;100071.22;5042932;28;20124;-46
2022/11/04 08:50:18;;;;;;;4.45;1.92;;;;;;;19.98;55.59;100075.97;5049397;28;20028;-49
2022/11/04 08:52:43;;;;;;;7.10;2.13;;;;;;;20.04;55.84;100070.25;5040913;28;20043;-48
2022/11/04 08:55:09;;;;;;;4.13;1.95;;;;;;;20.11;55.55;100076.81;5051361;28;20039;-48
2022/11/04 08:57:34;;;;;;;5.35;1.90;;;;;;;20.14;55.41;100071.34;5047956;28;20147;-49
2022/11/04 09:00:00;;;;;;;6.75;2.22;;;;;;;20.12;55.48;100069.72;5048494;28;20032;-47
2022/11/04 09:02:25;;;;;;;7.68;2.60;;;;;;;20.09;55.80;100077.84;5051033;28;20028;-47
2022/11/04 09:04:50;;;;;;;4.35;1.92;;;;;;;19.91;54.75;100061.53;5050608;28;20037;-49
2022/11/04 09:07:16;;;;;;;6.60;2.35;;;;;;;20.06;56.22;100070.13;5051984;28;20064;-51
2022/11/04 09:09:42;;;;;;;6.57;2.25;;;;;;;20.28;55.62;100065.06;5046841;28;20180;-49
2022/11/04 09:12:09;;;;;;;8.93;2.47;;;;;;;20.26;55.54;100053.78;5053390;28;20040;-49
2022/11/04 09:14:34;;;;;;;10.60;2.08;;;;;;;20.28;55.73;100063.28;5045267;28;20037;-55
2022/11/04 09:16:59;;;;;;;5.88;1.90;;;;;;;20.25;55.72;100052.94;5065547;28;20039;-53
2022/11/04 09:19:25;;;;;;;4.35;1.80;;;;;;;20.29;55.93;100057.03;5043913;28;20082;-52
2022/11/04 09:21:50;;;;;;;10.13;2.00;;;;;;;20.14;55.96;100063.44;5045226;28;20040;-48
2022/11/04 09:24:19;;;;;;;4.65;2.00;;;;;;;20.35;55.73;100064.50;5046923;28;20195;-49
2022/11/04 09:26:44;;;;;;;5.63;1.90;;;;;;;20.31;55.43;100060.41;5044169;28;20028;-50
2022/11/04 09:29:10;;;;;;;5.60;1.80;;;;;;;20.34;55.89;100064.63;5047401;28;20044;-49
2022/11/04 09:31:38;;;;;;;5.40;2.13;;;;;;;20.29;56.18;100064.94;5046725;28;20032;-51
2022/11/04 09:34:04;;;;;;;7.03;2.08;;;;;;;20.20;56.24;100057.69;5049487;28;20123;-50
2022/11/04 09:36:29;;;;;;;4.90;1.98;;;;;;;20.21;54.58;100056.75;5044134;28;20086;-48
2022/11/04 09:38:55;;;;;;;4.78;1.67;;;;;;;19.88;55.24;100056.47;5049400;28;20032;-48
2022/11/04 09:41:20;;;;;;;3.88;1.70;;;;;;;19.81;55.94;100049.97;5049757;28;20025;-49
2022/11/04 09:43:56;;;;;;;4.28;1.67;;;;;;;19.97;55.65;100049.69;5048445;28;20016;-48
2022/11/04 09:46:22;;;;;;;7.10;1.70;;;;;;;19.85;54.77;100061.94;5050183;28;20050;-49
2022/11/04 09:48:52;;;;;;;5.80;1.80;;;;;;;19.76;55.22;100068.72;5049024;28;20049;-49
2022/11/04 09:51:21;;;;;;;5.63;1.80;;;;;;;19.68;54.87;100070.19;5051178;28;21437;-54
2022/11/04 09:53:50;;;;;;;3.22;1.73;;;;;;;19.64;54.87;100066.13;5049091;28;20039;-50
2022/11/04 09:56:27;;;;;;;4.80;1.67;;;;;;;19.60;55.00;100064.63;5048904;28;20029;-50
2022/11/04 09:58:53;;;;;;;5.30;1.70;;;;;;;19.65;55.48;100068.63;5048018;28;20043;-47
2022/11/04 10:01:30;;;;;;;6.03;2.10;;;;;;;19.73;55.91;100060.19;5051767;28;20041;-49
2022/11/04 10:04:17;;;;;;;5.90;1.85;;;;;;;19.78;55.32;100066.84;5041133;28;20653;-52
2022/11/04 10:07:10;;;;;;;6.15;1.65;;;;;;;19.77;54.86;100065.13;5049528;28;20041;-48
2022/11/04 10:10:05;;;;;;;2.00;1.40;;;;;;;19.65;55.06;100070.41;5045262;28;20215;-49
2022/11/04 10:12:30;;;;;;;3.85;1.90;;;;;;;19.67;56.11;100077.25;5050853;28;20036;-51
2022/11/04 10:15:29;;;;;;;4.60;1.60;;;;;;;19.71;54.98;100070.00;5045265;28;20641;-50
2022/11/04 10:18:18;;;;;;;3.65;1.60;;;;;;;19.56;55.63;100077.16;5041093;28;20586;-47
2022/11/04 10:20:56;;;;;;;4.75;1.60;;;;;;;19.75;55.20;100088.13;5045818;28;20062;-49
2022/11/04 10:23:30;;;;;;;7.35;1.88;;;;;;;19.74;55.15;100086.44;5043624;28;20040;-48
2022/11/04 10:25:59;;;;;;;;;;;;;;;19.78;55.31;100084.44;5050200;28;20499;-48
2022/11/04 10:28:32;;;;;;;3.35;1.70;;;;;;;19.78;56.02;100093.19;5047692;28;19920;-48
2022/11/04 10:30:59;;;;;;;3.90;1.35;;;;;;;19.75;55.15;100089.91;5047519;28;20882;-47
2022/11/04 10:33:34;;;;;;;3.63;1.67;;;;;;;19.71;55.10;100085.81;5050601;28;20041;-48
2022/11/04 10:36:05;;;;;;;3.15;1.70;;;;;;;19.65;55.96;100097.63;5048722;28;20037;-48
2022/11/04 10:38:37;;;;;;;3.03;1.73;;;;;;;19.80;55.57;100100.97;5051180;28;20583;-48
2022/11/04 10:41:19;;;;;;;6.75;1.75;;;;;;;19.74;55.06;100096.97;5044403;28;20097;-50
2022/11/04 10:43:45;;;;;;;2.90;1.48;;;;;;;19.88;56.12;100103.09;5042487;28;20424;-43
2022/11/04 10:46:25;;;;;;;3.45;1.30;;;;;;;19.93;55.71;100099.19;5040754;28;20068;-45
2022/11/04 10:48:59;;;;;;;3.03;1.40;;;;;;;19.78;55.52;100093.19;5049998;28;20094;-44
2022/11/04 10:51:25;;;;;;;3.45;1.65;;;;;;;19.71;55.12;100102.47;5044298;28;20802;-43
2022/11/04 10:53:55;;;;;;;3.78;1.50;;;;;;;19.67;55.34;100100.97;5043508;28;20036;-45
2022/11/04 10:56:34;;;;;;;4.82;1.45;;;;;;;19.76;54.86;100102.97;5046998;28;20078;-46
2022/11/04 10:59:16;;;;;;;2.17;1.40;;;;;;;19.79;54.99;100107.19;5046719;28;20013;-43
2022/11/04 11:01:49;;;;;;;3.58;1.40;;;;;;;19.88;55.12;100111.00;5052137;28;20497;-43
2022/11/04 11:04:33;;;;;;;5.03;1.80;;;;;;;19.82;55.37;100111.44;5052367;28;20941;-43
2022/11/04 11:07:02;;;;;;;3.38;1.27;;;;;;;19.77;56.15;100117.00;5052253;28;20102;-44
2022/11/04 11:09:50;;;;;;;2.60;1.58;;;;;;;19.72;54.80;100114.69;5051644;28;20596;-43
2022/11/04 11:12:28;;;;;;;3.10;1.33;;;;;;;19.69;55.98;100119.34;5048675;28;20434;-45
2022/11/04 11:14:54;;;;;;;3.85;1.15;;;;;;;19.60;55.37;100117.31;5046704;28;20037;-44
2022/11/04 11:17:37;;;;;;;5.60;1.50;;;;;;;19.85;55.36;100117.31;5046167;28;20115;-42
2022/11/04 11:20:21;;;;;;;4.38;1.75;;;;;;;19.86;56.01;100118.16;5048153;28;20032;-42
2022/11/04 11:22:50;;;;;;;2.38;1.25;;;;;;;19.83;55.69;100121.00;5049833;28;20548;-43
2022/11/04 11:25:18;;;;;;;3.15;1.30;;;;;;;19.75;55.26;100116.28;5046604;28;20130;-44
2022/11/04 11:27:48;;;;;;;2.58;1.40;;;;;;;19.68;55.45;100117.63;5048644;28;20097;-43
2022/11/04 11:30:27;;;;;;;4.22;1.30;;;;;;;19.97;57.16;100119.09;5049632;28;20082;-42
2022/11/04 11:32:56;;;;;;;3.95;1.63;;;;;;;19.61;55.12;100114.56;5049708;28;20037;-41
2022/11/04 11:35:27;;;;;;;3.10;1.27;;;;;;;19.54;55.51;100109.84;5049600;28;20828;-42
2022/11/04 11:37:53;;;;;;;3.50;1.20;;;;;;;19.61;55.52;100113.75;5051535;28;20037;-41
2022/11/04 11:40:36;;;;;;;2.97;1.40;;;;;;;19.55;55.59;100120.25;5049506;28;20037;-41
2022/11/04 11:43:03;;;;;;;3.22;1.63;;;;;;;19.57;55.52;100122.81;5047726;28;20109;-42
2022/11/04 11:45:30;;;;;;;3.85;1.20;;;;;;;19.66;55.75;100124.81;5048906;28;20081;-42
2022/11/04 11:47:55;;;;;;;3.03;1.20;;;;;;;19.59;55.60;100119.13;5048477;28;20087;-42
2022/11/04 11:50:30;;;;;;;3.08;1.20;;;;;;;19.56;55.89;100127.22;5050923;28;20044;-42
2022/11/04 11:53:17;;;;;;;5.80;1.83;;;;;;;19.54;55.71;100117.75;5048752;28;20039;-42
2022/11/04 11:55:49;;;;;;;2.88;1.20;;;;;;;19.51;55.98;100118.81;5043381;28;20056;-43
2022/11/04 11:58:28;;;;;;;2.55;1.10;;;;;;;19.52;56.02;100119.66;5049403;28;20037;-41
2022/11/04 12:01:03;;;;;;;4.40;1.20;;;;;;;19.53;56.17;100116.91;5041870;28;20071;-44
2022/11/04 12:03:36;;;;;;;2.22;1.20;;;;;;;19.51;55.78;100118.81;5050962;28;20174;-42
2022/11/04 12:06:14;;;;;;;2.65;1.38;;;;;;;19.55;55.70;100128.16;5048708;28;20028;-41
2022/11/04 12:08:54;;;;;;;6.82;1.40;;;;;;;19.59;55.81;100120.91;5047674;28;20119;-46
2022/11/04 12:11:53;;;;;;;3.53;1.60;;;;;;;19.53;55.94;100122.16;5050444;28;20036;-48
2022/11/04 12:14:46;;;;;;;4.53;1.40;;;;;;;19.56;55.85;100131.66;5051144;28;20763;-51
2022/11/04 12:17:33;;;;;;;2.63;1.40;;;;;;;19.53;55.93;100129.22;5046337;28;20057;-42